createdAt,value
2018-05-17T00:02:18.906Z,18.77
2018-05-17T00:04:47.113Z,20.13
2018-05-17T00:07:14.550Z,19.47
2018-05-17T00:09:42.003Z,18.10
2018-05-17T00:12:10.206Z,18.53
2018-05-17T00:14:38.423Z,18.00
2018-05-17T00:17:05.861Z,18.63
2018-05-17T00:19:33.315Z,17.90
2018-05-17T00:22:00.745Z,16.97
2018-05-17T00:24:28.190Z,18.23
2018-05-17T00:26:55.630Z,18.67
2018-05-17T00:29:23.079Z,19.23
2018-05-17T00:31:50.513Z,20.23
2018-05-17T00:34:17.970Z,18.17
2018-05-17T00:36:46.164Z,20.37
2018-05-17T00:39:14.385Z,19.17
2018-05-17T00:41:41.819Z,18.80
2018-05-17T00:44:09.286Z,17.57
2018-05-17T00:46:37.485Z,17.50
2018-05-17T00:49:04.935Z,16.57
2018-05-17T00:51:32.370Z,17.40
2018-05-17T00:53:59.816Z,17.53
2018-05-17T00:56:27.255Z,16.40
2018-05-17T00:58:55.469Z,15.63
2018-05-17T01:01:23.670Z,17.20
2018-05-17T01:03:51.114Z,17.60
2018-05-17T01:06:18.559Z,19.03
2018-05-17T01:08:45.997Z,18.07
2018-05-17T01:11:14.202Z,18.27
2018-05-17T01:13:42.410Z,18.00
2018-05-17T01:16:10.615Z,17.80
2018-05-17T01:18:38.826Z,19.10
2018-05-17T01:21:06.262Z,19.00
2018-05-17T01:23:33.705Z,19.00
2018-05-17T01:26:01.142Z,19.10
2018-05-17T01:28:28.586Z,19.73
2018-05-17T01:30:56.021Z,20.17
2018-05-17T01:33:23.466Z,17.93
2018-05-17T01:35:50.901Z,16.37
2018-05-17T01:38:26.997Z,16.50
2018-05-17T01:40:55.197Z,16.87
2018-05-17T01:43:23.406Z,15.37
2018-05-17T01:45:50.843Z,14.73
2018-05-17T01:48:18.278Z,15.90
2018-05-17T01:50:45.726Z,15.03
2018-05-17T01:53:13.161Z,15.17
2018-05-17T01:55:40.616Z,15.27
2018-05-17T01:58:08.050Z,14.97
2018-05-17T02:00:35.497Z,14.97
2018-05-17T02:03:02.937Z,14.30
2018-05-17T02:05:30.385Z,13.57
2018-05-17T02:07:57.827Z,13.90
2018-05-17T02:10:26.043Z,13.67
2018-05-17T02:12:53.479Z,14.40
2018-05-17T02:15:20.922Z,14.63
2018-05-17T02:17:48.369Z,14.33
2018-05-17T02:20:16.583Z,13.90
2018-05-17T02:22:44.018Z,13.17
2018-05-17T02:25:11.462Z,15.37
2018-05-17T02:27:38.901Z,14.57
2018-05-17T02:30:07.114Z,15.87
2018-05-17T02:32:35.322Z,13.80
2018-05-17T02:35:02.766Z,15.10
2018-05-17T02:37:30.211Z,14.50
2018-05-17T02:39:57.666Z,14.60
2018-05-17T02:42:25.873Z,14.67
2018-05-17T02:44:53.315Z,15.13
2018-05-17T02:47:20.750Z,15.27
2018-05-17T02:49:48.193Z,15.57
2018-05-17T02:52:15.639Z,14.77
2018-05-17T02:54:43.085Z,16.67
2018-05-17T02:57:10.526Z,15.80
2018-05-17T02:59:37.966Z,14.40
2018-05-17T03:02:05.409Z,16.20
2018-05-17T03:04:33.631Z,15.90
2018-05-17T03:07:01.837Z,15.73
2018-05-17T03:09:29.277Z,15.50
2018-05-17T03:11:56.726Z,15.87
2018-05-17T03:14:24.175Z,15.90
2018-05-17T03:16:52.379Z,16.50
2018-05-17T03:19:19.826Z,16.33
2018-05-17T03:21:47.272Z,16.00
2018-05-17T03:24:14.715Z,15.53
2018-05-17T03:26:42.956Z,15.77
2018-05-17T03:29:10.365Z,16.90
2018-05-17T03:31:37.807Z,17.67
2018-05-17T03:34:05.251Z,17.87
2018-05-17T03:36:33.458Z,17.40
2018-05-17T03:39:00.898Z,15.83
2018-05-17T03:41:28.342Z,14.90
2018-05-17T03:43:55.787Z,15.83
2018-05-17T03:46:24.001Z,15.77
2018-05-17T03:48:52.205Z,15.93
2018-05-17T03:51:19.654Z,15.97
2018-05-17T03:53:47.090Z,18.00
2018-05-17T03:56:14.547Z,15.60
2018-05-17T03:58:42.741Z,16.10
2018-05-17T04:01:22.963Z,17.27
2018-05-17T04:04:02.169Z,20.10
2018-05-17T04:06:44.214Z,18.93
2018-05-17T04:09:11.646Z,21.30
2018-05-17T04:11:39.937Z,21.40
2018-05-17T04:14:07.302Z,22.70
2018-05-17T04:16:34.750Z,21.27
2018-05-17T04:19:02.202Z,26.90
2018-05-17T04:21:29.656Z,27.70
2018-05-17T04:23:57.094Z,26.33
2018-05-17T04:26:24.541Z,27.10
2018-05-17T04:28:51.998Z,26.92
2018-05-17T04:31:19.446Z,26.75
2018-05-17T04:33:46.885Z,27.85
2018-05-17T04:36:14.333Z,20.63
2018-05-17T04:38:42.539Z,18.57
2018-05-17T06:07:01.738Z,19.30
2018-05-17T06:09:29.190Z,22.70
2018-05-17T06:11:56.640Z,23.10
2018-05-17T06:14:24.078Z,19.80
2018-05-17T06:16:51.526Z,18.67
2018-05-17T07:42:43.690Z,12.07
2018-05-17T09:57:43.634Z,7.73
2018-05-17T10:00:16.635Z,8.52
2018-05-17T10:02:44.078Z,7.50
2018-05-17T10:05:11.526Z,6.95
2018-05-17T10:07:38.962Z,6.60
2018-05-17T10:10:07.170Z,5.63
2018-05-17T10:12:34.615Z,5.57
2018-05-17T10:15:02.053Z,6.50
2018-05-17T10:17:29.493Z,5.70
2018-05-17T10:19:57.706Z,6.70
2018-05-17T10:22:25.914Z,5.70
2018-05-17T10:24:53.350Z,6.40
2018-05-17T10:27:20.794Z,6.63
2018-05-17T10:29:48.228Z,6.87
2018-05-17T10:32:15.665Z,7.17
2018-05-17T10:34:43.122Z,7.40
2018-05-17T10:37:10.573Z,7.65
2018-05-17T10:39:38.787Z,7.85
2018-05-17T10:42:06.261Z,7.50
2018-05-17T10:44:33.670Z,7.35
2018-05-17T10:47:01.114Z,7.35
2018-05-17T10:49:28.554Z,8.20
2018-05-17T10:51:55.990Z,8.50
2018-05-17T10:54:24.227Z,8.90
2018-05-17T10:56:51.666Z,9.27
2018-05-17T10:59:19.870Z,8.77
2018-05-17T11:01:48.073Z,8.40
2018-05-17T11:04:15.529Z,8.70
2018-05-17T11:06:42.958Z,8.77
2018-05-17T11:09:10.406Z,8.70
2018-05-17T11:11:38.679Z,8.40
2018-05-17T11:14:06.075Z,8.10
2018-05-17T11:16:33.517Z,9.18
2018-05-17T11:19:00.974Z,9.48
2018-05-17T11:21:28.425Z,10.38
2018-05-17T11:23:56.650Z,11.07
2018-05-17T11:26:24.106Z,10.90
2018-05-17T11:28:52.322Z,9.88
2018-05-17T11:31:19.774Z,10.50
2018-05-17T11:33:47.225Z,11.20
2018-05-17T11:36:15.448Z,11.25
2018-05-17T11:38:42.907Z,11.48
2018-05-17T11:41:10.350Z,10.75
2018-05-17T11:43:37.798Z,11.50
2018-05-17T11:46:05.242Z,10.63
2018-05-17T11:48:32.699Z,11.00
2018-05-17T11:51:00.153Z,10.65
2018-05-17T11:53:27.611Z,11.50
2018-05-17T11:55:55.051Z,11.52
2018-05-17T11:58:22.497Z,12.10
2018-05-17T12:00:50.712Z,11.60
2018-05-17T12:03:18.931Z,12.40
2018-05-17T12:27:52.542Z,14.83
2018-05-17T12:30:19.982Z,16.20
2018-05-17T12:32:47.426Z,16.13
2018-05-17T12:35:14.878Z,15.33
2018-05-17T12:37:42.326Z,16.97
2018-05-17T12:40:09.779Z,17.90
2018-05-17T12:42:37.230Z,18.17
2018-05-17T12:45:04.686Z,18.87
2018-05-17T12:47:32.130Z,21.27
2018-05-17T12:50:00.348Z,21.60
2018-05-17T12:52:27.789Z,20.73
2018-05-17T12:54:55.230Z,21.30
2018-05-17T12:57:22.676Z,20.70
2018-05-17T12:59:50.890Z,20.40
2018-05-17T13:02:18.334Z,20.47
2018-05-17T13:04:45.779Z,20.70
2018-05-17T13:07:13.341Z,19.97
2018-05-17T13:09:41.438Z,19.67
2018-05-17T13:12:08.882Z,20.57
2018-05-17T13:14:36.335Z,18.50
2018-05-17T13:19:30.781Z,19.40
2018-05-17T13:21:58.227Z,19.37
2018-05-17T13:36:42.446Z,18.03
2018-05-17T13:39:09.893Z,23.27
2018-05-17T13:41:37.330Z,19.97
2018-05-17T13:44:04.778Z,22.90
2018-05-17T13:46:32.222Z,21.67
2018-05-17T13:51:27.426Z,19.47
2018-05-17T13:53:54.886Z,22.98
2018-05-17T13:56:22.326Z,23.50
2018-05-17T13:58:49.774Z,23.10
2018-05-17T14:01:17.599Z,23.40
2018-05-17T14:03:45.035Z,22.57
2018-05-17T14:06:12.479Z,22.50
2018-05-17T14:08:39.921Z,20.80
2018-05-17T14:11:07.365Z,22.47
2018-05-17T14:13:35.574Z,23.23
2018-05-17T14:16:03.786Z,20.87
2018-05-17T14:18:31.226Z,20.97
2018-05-17T14:20:58.674Z,22.77
2018-05-17T14:23:26.118Z,20.37
2018-05-17T14:25:54.331Z,20.93
2018-05-17T14:28:21.770Z,22.27
2018-05-17T14:30:49.218Z,20.87
2018-05-17T14:33:16.658Z,19.83
2018-05-17T14:35:44.875Z,21.67
2018-05-17T14:38:12.314Z,22.53
2018-05-17T14:40:39.766Z,21.07
2018-05-17T14:43:07.202Z,20.90
2018-05-17T14:45:35.418Z,22.27
2018-05-17T14:48:02.862Z,21.67
2018-05-17T14:50:30.307Z,22.10
2018-05-17T14:52:57.751Z,29.00
2018-05-17T14:55:25.971Z,24.83
2018-05-17T14:57:53.414Z,25.23
2018-05-17T15:00:20.867Z,22.07
2018-05-17T15:02:48.310Z,22.10
2018-05-17T15:05:15.762Z,21.47
2018-05-17T15:07:43.206Z,20.90
2018-05-17T15:10:10.654Z,20.67
2018-05-17T15:12:38.095Z,21.80
2018-05-17T15:15:05.547Z,20.13
2018-05-17T15:17:32.990Z,22.00
2018-05-17T15:20:00.446Z,22.92
2018-05-17T15:22:27.882Z,21.50
2018-05-17T15:24:55.334Z,23.75
2018-05-17T15:27:22.878Z,24.00
2018-05-17T15:34:44.990Z,23.10
2018-05-17T15:37:12.444Z,24.30
2018-05-17T15:39:39.886Z,22.63
2018-05-17T15:42:07.335Z,23.50
2018-05-17T15:44:34.778Z,20.63
2018-05-17T15:47:02.227Z,23.60
2018-05-17T15:49:29.663Z,23.87
2018-05-17T15:51:57.882Z,25.33
2018-05-17T15:54:25.322Z,24.00
2018-05-17T15:56:52.770Z,24.87
2018-05-17T15:59:20.206Z,24.67
2018-05-17T16:01:47.654Z,25.97
2018-05-17T16:04:15.098Z,25.47
2018-05-17T16:06:42.551Z,26.97
2018-05-17T16:09:10.927Z,23.30
2018-05-17T16:11:38.382Z,24.93
2018-05-17T16:14:05.822Z,26.30
2018-05-17T16:16:33.262Z,25.57
2018-05-17T16:19:00.698Z,25.80
2018-05-17T16:21:28.914Z,24.57
2018-05-17T17:44:24.996Z,23.70
2018-05-17T17:46:52.446Z,24.33
2018-05-17T17:54:13.880Z,24.53
2018-05-17T17:56:41.331Z,23.97
2018-05-17T17:59:08.779Z,26.37
2018-05-17T18:01:36.228Z,27.77
2018-05-17T18:04:03.667Z,26.27
2018-05-17T18:06:31.874Z,25.50
2018-05-17T18:08:59.326Z,26.33
2018-05-17T18:11:26.771Z,27.00
2018-05-17T18:13:54.214Z,26.23
2018-05-17T18:16:21.662Z,26.43
2018-05-17T18:36:00.386Z,28.83
2018-05-17T18:38:27.818Z,28.63
2018-05-17T18:40:55.262Z,28.57
2018-05-17T18:43:22.713Z,30.67
2018-05-17T18:45:50.151Z,32.23
2018-05-17T19:07:54.326Z,33.77
2018-05-17T19:10:22.534Z,35.63
2018-05-17T19:12:50.746Z,37.25
2018-05-17T19:15:18.194Z,37.80
2018-05-17T19:17:45.650Z,38.60
2018-05-17T19:20:13.094Z,36.15
2018-05-17T19:22:40.558Z,37.88
2018-05-17T19:25:08.778Z,36.20
2018-05-17T19:27:36.220Z,38.23
2018-05-17T19:30:03.654Z,38.83
2018-05-17T19:32:31.117Z,37.50
2018-05-17T19:34:59.339Z,38.85
2018-05-17T19:37:26.839Z,36.90
2018-05-17T19:39:55.004Z,36.65
2018-05-17T19:42:23.222Z,38.85
2018-05-17T19:44:50.671Z,33.90
2018-05-17T19:54:40.634Z,33.53
2018-05-17T19:57:08.837Z,37.10
2018-05-17T19:59:36.365Z,41.87
2018-05-17T20:02:03.713Z,41.85
2018-05-17T20:04:31.173Z,39.83
2018-05-17T20:06:59.399Z,42.60
2018-05-17T20:09:26.848Z,41.08
2018-05-17T20:11:55.054Z,42.05
2018-05-17T20:14:23.270Z,41.50
2018-05-17T20:16:50.718Z,40.67
2018-05-17T20:19:18.159Z,45.17
2018-05-17T20:21:45.620Z,42.90
2018-05-17T20:24:13.815Z,43.30
2018-05-17T20:26:42.039Z,42.38
2018-05-17T20:29:09.484Z,40.42
2018-05-17T20:31:36.938Z,43.05
2018-05-17T20:34:04.382Z,41.05
2018-05-17T20:36:31.826Z,45.28
2018-05-17T20:38:59.274Z,43.23
2018-05-17T20:41:26.718Z,43.17
2018-05-17T20:43:54.926Z,39.80
2018-05-17T20:46:22.372Z,39.37
2018-05-17T20:48:49.809Z,39.00
2018-05-17T20:51:17.256Z,37.30
2018-05-17T20:53:45.465Z,34.93
2018-05-17T20:56:13.678Z,38.27
2018-05-17T20:58:41.130Z,37.50
2018-05-17T21:01:09.338Z,37.17
2018-05-17T21:03:37.550Z,36.40
2018-05-17T21:06:05.762Z,32.63
2018-05-17T21:08:33.976Z,38.90
2018-05-17T21:11:01.415Z,37.03
2018-05-17T21:13:28.861Z,36.07
2018-05-17T21:15:56.298Z,36.97
2018-05-17T21:18:24.514Z,37.27
2018-05-17T21:25:47.483Z,37.40
2018-05-17T21:28:15.699Z,43.63
2018-05-17T21:30:43.139Z,44.83
2018-05-17T21:33:10.581Z,44.78
2018-05-17T21:35:38.031Z,45.78
2018-05-17T21:38:06.260Z,42.40
2018-05-17T21:40:33.709Z,43.25
2018-05-17T21:43:01.922Z,43.55
2018-05-17T21:45:30.138Z,40.92
2018-05-17T21:47:57.581Z,43.45
2018-05-17T21:50:25.019Z,43.20
2018-05-17T21:52:52.482Z,43.15
2018-05-17T21:55:19.926Z,42.28
2018-05-17T21:57:47.380Z,42.70
2018-05-17T22:00:14.826Z,43.40
2018-05-17T22:02:42.278Z,42.05
2018-05-17T22:05:10.493Z,43.80
2018-05-17T22:07:39.651Z,42.95
2018-05-17T22:10:06.998Z,44.28
2018-05-17T22:12:35.218Z,42.70
2018-05-17T22:15:02.671Z,40.95
2018-05-17T22:17:30.895Z,42.00
2018-05-17T22:19:58.338Z,43.10
2018-05-17T22:22:25.790Z,41.85
2018-05-17T22:24:53.230Z,43.00
2018-05-17T22:27:21.442Z,41.25
2018-05-17T22:29:48.894Z,43.63
2018-05-17T22:32:16.350Z,41.30
2018-05-17T22:34:43.799Z,43.08
2018-05-17T22:37:11.243Z,43.47
2018-05-17T22:39:38.682Z,43.33
2018-05-17T22:42:06.134Z,45.10
2018-05-17T22:44:33.586Z,43.05
2018-05-17T22:47:01.022Z,44.42
2018-05-17T22:49:28.475Z,44.07
2018-05-17T22:51:56.605Z,44.40
2018-05-17T22:54:23.954Z,43.40
2018-05-17T22:57:03.361Z,43.25
2018-05-17T22:59:30.813Z,43.53
2018-05-17T23:01:58.258Z,41.80
2018-05-17T23:04:26.480Z,41.50
2018-05-17T23:06:53.922Z,44.08
2018-05-17T23:09:21.372Z,45.60
2018-05-17T23:11:48.811Z,44.77
2018-05-17T23:14:17.029Z,43.17
2018-05-17T23:16:45.235Z,44.72
2018-05-17T23:19:12.690Z,47.42
2018-05-17T23:21:40.894Z,46.40
2018-05-17T23:24:09.149Z,48.70
2018-05-17T23:26:36.569Z,46.03
2018-05-17T23:29:04.014Z,46.72
2018-05-17T23:31:31.462Z,44.28
2018-05-17T23:33:59.670Z,44.00
2018-05-17T23:36:27.106Z,45.47
2018-05-17T23:38:54.558Z,44.47
2018-05-17T23:41:33.922Z,42.03
2018-05-17T23:44:01.382Z,43.25
2018-05-17T23:46:28.826Z,42.75
2018-05-17T23:48:56.277Z,43.08
2018-05-17T23:51:23.718Z,42.57
2018-05-17T23:53:51.174Z,43.95
2018-05-17T23:56:18.623Z,42.53
2018-05-17T23:58:46.072Z,43.55
